Tiempo atmosférico en la estación meteorológica de Lorca, Zarcilla de Ramos, Murcia (674 m.)



Fecha
DESCASC
Temp. máxima en grados centígrados (hora)
DESCASC
Temp. mínima en grados centígrados (hora)
DESCASC
Temp. media en grados centígrados
DESCASC
Racha de viento máxima en m/sg (hora)
DESCASC
Velocidad máxima media en intervalos de 10 minutos(hora)
DESCASC
Precipitaciones diarias en mm
DESCASC
Precipitaciones de 00:00 a 06:00 en mm
DESCASC
Precipitaciones de 06:00 a 12:00 en mm
DESCASC
Precipitaciones de 12:00 a 18:00 en mm
DESCASC
Precipitaciones de 18:00 a 24:00 en mm
DESCASC
11-08-2020 33.5 (14:50) 21.4 (06:30) 27.4 10 (16:40) 6.67 (16:20) 0 0 0 0 0
10-08-2020 36.9 (15:10) 18.7 (04:00) 27.8 10.28 (15:40) 5.83 (17:40) 0 0 0 0 0
09-08-2020 38.4 (16:00) 18.9 (07:10) 28.7 10.83 (18:00) 6.39 (17:10) 0 0 0 0 0
08-08-2020 37.7 (16:10) 17.5 (07:10) 27.6 9.17 (16:50) 6.11 (16:50) 0 0 0 0 0
07-08-2020 35.1 (16:00) 17.9 (00:00) 26.5 8.33 (14:50) 5.28 (19:10) 0 0 0 0 0
06-08-2020 34.3 (16:30) 17.3 (00:00) 25.8 9.72 (17:10) 5.28 (17:00) 0 0 0 0 0
05-08-2020 33.4 (16:40) 18.3 (00:00) 25.9 10.56 (17:30) 6.11 (17:20) 0 0 0 0 0
04-08-2020 33.2 (15:50) 21.6 (06:20) 27.4 9.72 (18:50) 6.11 (18:50) 0 0 0 0 0
03-08-2020 35.6 (14:20) 18.2 (07:30) 26.9 12.22 (19:30) 8.06 (19:30) 4 0 0 0 4
02-08-2020 39.9 (12:40) 23.7 (00:00) 31.8 11.94 (14:50) 7.78 (17:50) 0 0 0 0 0
01-08-2020 44.4 (14:10) 23.3 (00:00) 33.9 17.78 (16:40) 11.39 (16:40) 0 0 0 0 0
31-07-2020 39.8 (15:00) 19.3 (07:10) 29.5 11.11 (16:00) 7.22 (15:10) 0 0 0 0 0
30-07-2020 39.3 (15:50) 20.5 (00:00) 29.9 9.72 (16:20) 6.67 (17:30) 0 0 0 0 0
29-07-2020 38 (15:50) 20.7 (00:00) 29.4 10.56 (18:40) 6.39 (17:50) 0 0 0 0 0
28-07-2020 38.1 (13:40) 20.6 (00:00) 29.3 9.44 (17:10) 6.39 (15:50) 0 0 0 0 0
27-07-2020 38.9 (15:10) 19.2 (00:00) 29.1 11.11 (17:30) 6.39 (16:10) 0 0 0 0 0
26-07-2020 39.9 (16:00) 18.1 (00:00) 29 9.72 (17:20) 6.11 (17:40) 0 0 0 0 0
25-07-2020 36.6 (17:50) 18.1 (00:00) 27.3 10.28 (16:50) 6.67 (17:50) 0 0 0 0 0
24-07-2020 38 (12:30) 20 (00:00) 29 11.39 (16:10) 6.94 (16:50) 0 0 0 0 0
23-07-2020 36.2 (15:40) 18.8 (00:00) 27.5 11.11 (14:30) 5.83 (17:50) 0 0 0 0 0
22-07-2020 34.2 (16:20) 18.1 (00:00) 26.2 9.72 (17:00) 6.11 (17:10) 0 0 0 0 0
21-07-2020 34.4 (16:20) 17.9 (00:00) 26.2 11.94 (16:20) 6.39 (16:10) 0 0 0 0 0
20-07-2020 35.8 (14:10) 17.7 (00:00) 26.8 11.94 (16:20) 6.11 (20:00) 0 0 0 0 0
19-07-2020 34.4 (15:40) 16.7 (00:00) 25.6 14.72 (20:50) 8.33 (20:50) 0 0 0 0 0
18-07-2020 32.9 (15:20) 16.8 (00:00) 24.9 9.72 (13:00) 5.83 (17:20) 0 0 0 0 0
17-07-2020 33 (15:00) 15.9 (00:00) 24.4 10.56 (15:50) 6.11 (17:50) 0 0 0 0 0
16-07-2020 33.3 (16:50) 15.2 (00:00) 24.2 8.33 (17:20) 5.28 (17:50) 0 0 0 0 0
15-07-2020 31.3 (15:40) 15.8 (00:00) 23.5 8.06 (17:10) 4.72 (20:00) 0 0 0 0 0
14-07-2020 29.3 (17:00) 17 (00:00) 23.1 16.39 (19:10) 8.06 (19:10) 21.6 0 1 0.6 20

Gráficas

Temp. máximas Temp. mínimas Temp. medias Precipitaciones Rachas de viento máximas Velocidades máximas media en intervalos de 10 minutos

Datos horarios

Fecha y hora oficial Temperatura (ºC) Velocidad del viento (km/h) Dirección del viento Racha (km/h) Dirección de racha Precipitación (mm) Presión (hPa) Tendencia (hPa) Humedad (%)
2020-08-12 23:00:00 22.6 5 Este 17 Sudeste 0 -- -- 58
2020-08-12 22:00:00 24.2 11 Sudeste 24 Sudeste 0 -- -- 59
2020-08-12 21:00:00 25.6 19 Sudeste 33 Sudeste 0 -- -- 55
2020-08-12 20:00:00 28 21 Sudeste 33 Sudeste 0 -- -- 50
2020-08-12 19:00:00 29.7 23 Sudeste 39 Sur 0 -- -- 49
2020-08-12 18:00:00 31 25 Sudeste 44 Sudeste 0 -- -- 47
2020-08-12 17:00:00 31.8 31 Sudeste 50 Sudeste 0 -- -- 44
2020-08-12 16:00:00 32.6 35 Sudeste 55 Sudeste 0 -- -- 39
2020-08-12 15:00:00 33.3 32 Sudeste 51 Sudeste 0 -- -- 36
2020-08-12 14:00:00 32.6 35 Sur 48 Sur 0 -- -- 35
2020-08-12 13:00:00 31.1 15 Sudeste 28 Este 0 -- -- 44
2020-08-12 12:00:00 28.9 8 Sur 24 Este 0 -- -- 49
2020-08-12 11:00:00 27 9 Sudeste 14 Este 0 -- -- 53
2020-08-12 10:00:00 24 3 Sudoeste 8 Sudeste 0 -- -- 57
2020-08-12 09:00:00 21.6 4 Sur 10 Nordeste 0 -- -- 64
2020-08-12 08:00:00 18.2 8 Norte 14 Norte 0 -- -- 73
2020-08-12 07:00:00 19.3 4 Sudeste 25 Noroeste 0 -- -- 69
2020-08-12 06:00:00 19.7 12 Noroeste 21 Noroeste 0 -- -- 68
2020-08-12 05:00:00 20.1 18 Norte 28 Norte 0 -- -- 64
2020-08-12 04:00:00 19.9 19 Norte 33 Norte 0 -- -- 68
2020-08-12 03:00:00 20.8 17 Norte 28 Norte 0 -- -- 66
2020-08-12 02:00:00 21.2 22 Norte 37 Norte 0 -- -- 67
2020-08-12 01:00:00 23.1 13 Norte 22 Norte 0 -- -- 77
2020-08-12 00:00:00 23.2 14 Noroeste 21 Noroeste 0 -- -- 76
2020-08-11 23:00:00 23.8 7 Noroeste 22 Este 0 -- -- 73
2020-08-11 22:00:00 24 15 Nordeste 26 Sudeste 0 -- -- 76
2020-08-11 21:00:00 24.8 3 Este 30 Sudeste 0 -- -- 72
2020-08-11 20:00:00 26.5 21 Este 33 Este 0 -- -- 65
2020-08-11 19:00:00 28.6 17 Sudeste 33 Este 0 -- -- 58
2020-08-11 18:00:00 29.6 22 Sudeste 32 Sudeste 0 -- -- 51
2020-08-11 17:00:00 30 20 Sudeste 36 Sudeste 0 -- -- 46
2020-08-11 16:00:00 32 23 Sudeste 34 Sudeste 0 -- -- 40
2020-08-11 15:00:00 33.3 22 Sudeste 35 Este 0 -- -- 36
2020-08-11 14:00:00 32.3 17 Este 32 Este 0 -- -- 35
2020-08-11 13:00:00 29.8 16 Este 27 Este 0 -- -- 36
2020-08-11 12:00:00 30.3 12 Sudeste 21 Sur 0 -- -- 31
2020-08-11 11:00:00 30.2 8 Sudeste 14 Norte 0 -- -- 32
2020-08-11 10:00:00 27.1 10 Norte 17 Norte 0 -- -- 35
2020-08-11 09:00:00 24.8 8 Noroeste 33 Noroeste 0 -- -- 42
2020-08-11 08:00:00 21.8 18 Noroeste 26 Noroeste 0 -- -- 51
2020-08-11 07:00:00 23.3 13 Oeste 28 Noroeste 0 -- -- 45
2020-08-11 06:00:00 22.6 8 Norte 15 Norte 0 -- -- 48
2020-08-11 05:00:00 22.9 13 Norte 19 Noroeste 0 -- -- 48
2020-08-11 04:00:00 22 13 Noroeste 19 Noroeste 0 -- -- 56
2020-08-11 03:00:00 22 7 Norte 10 Noroeste 0 -- -- 58
2020-08-11 02:00:00 21.8 4 Norte 9 Sur 0 -- -- 59
2020-08-11 01:00:00 23.1 6 Sur 13 Sudeste 0 -- -- 49
2020-08-11 00:00:00 24 12 Sur 19 Sur 0 -- -- 47
2020-08-10 23:00:00 25.1 10 Sur 22 Sudeste 0 -- -- 45
2020-08-10 22:00:00 27.2 7 Sudeste 23 Sur 0 -- -- 36
2020-08-10 21:00:00 29.5 10 Noroeste 24 Sudeste 0 -- -- 36
2020-08-10 20:00:00 32.2 17 Este 28 Este 0 -- -- 31
2020-08-10 19:00:00 33.6 16 Este 28 Este 0 -- -- 28
2020-08-10 18:00:00 35.5 12 Este 33 Este 0 -- -- 24
2020-08-10 17:00:00 36.1 17 Este 33 Este 0 -- -- 23
2020-08-10 16:00:00 36.5 19 Este 37 Sudeste 0 -- -- 23
2020-08-10 15:00:00 36.8 15 Sudeste 29 Sudeste 0 -- -- 20
2020-08-10 14:00:00 36.6 17 Sudeste 28 Sudeste 0 -- -- 19
2020-08-10 13:00:00 34.8 8 Sudeste 23 Sudeste 0 -- -- 20
2020-08-10 12:00:00 32 4 Sudeste 12 Sudoeste 0 -- -- 25
2020-08-10 11:00:00 30.7 8 Sur 13 Sur 0 -- -- 25
2020-08-10 10:00:00 26.1 0 Calma 5 Sur 0 -- -- 33
2020-08-10 09:00:00 22.1 4 Sudoeste 9 Oeste 0 -- -- 41
2020-08-10 08:00:00 20.1 5 Noroeste 16 Norte 0 -- -- 42
2020-08-10 07:00:00 19 4 Norte 10 Noroeste 0 -- -- 44
2020-08-10 06:00:00 19.7 7 Noroeste 13 Noroeste 0 -- -- 43
2020-08-10 05:00:00 19.6 7 Norte 12 Noroeste 0 -- -- 47
2020-08-10 04:00:00 18.7 8 Norte 9 Norte 0 -- -- 47
2020-08-10 03:00:00 21.2 4 Noroeste 9 Noroeste 0 -- -- 44
2020-08-10 02:00:00 21.4 4 Noroeste 8 Este 0 -- -- 47
2020-08-10 01:00:00 22.4 3 Este 8 Noroeste 0 -- -- 46
2020-08-10 00:00:00 23.8 5 Nordeste 7 Norte 0 -- -- 47
2020-08-09 23:00:00 26.2 0 Calma 13 Este 0 -- -- 43
2020-08-09 22:00:00 27.4 6 Este 17 Este 0 -- -- 42
2020-08-09 21:00:00 30.5 11 Sudeste 24 Sudeste 0 -- -- 30
2020-08-09 20:00:00 33.5 15 Sudeste 31 Sudeste 0 -- -- 26
2020-08-09 19:00:00 35.3 22 Sudeste 32 Sudeste 0 -- -- 23
2020-08-09 18:00:00 35.8 22 Sudeste 39 Este 0 -- -- 22
2020-08-09 17:00:00 37.4 22 Sudeste 36 Sudeste 0 -- -- 19
2020-08-09 16:00:00 38.4 19 Sudeste 33 Sudeste 0 -- -- 18
2020-08-09 15:00:00 37.7 15 Sudeste 31 Sudeste 0 -- -- 16
2020-08-09 14:00:00 36.4 18 Sudeste 30 Sudeste 0 -- -- 17
2020-08-09 13:00:00 35.7 17 Sudeste 31 Sudeste 0 -- -- 16
2020-08-09 12:00:00 34.8 14 Sudeste 25 Sudeste 0 -- -- 17
2020-08-09 11:00:00 32.5 9 Sur 17 Sur 0 -- -- 25
2020-08-09 10:00:00 28.1 0 Calma 4 Sur 0 -- -- 32
2020-08-09 09:00:00 22.4 2 Sur 5 Sur 0 -- -- 43
2020-08-09 08:00:00 19 3 Sur 8 Noroeste 0 -- -- 52
2020-08-09 07:00:00 19 6 Noroeste 8 Noroeste 0 -- -- 50
2020-08-09 06:00:00 19.3 4 Noroeste 8 Noroeste 0 -- -- 50
2020-08-09 05:00:00 19.8 5 Norte 8 Norte 0 -- -- 49
2020-08-09 04:00:00 20.6 2 Sur 6 Norte 0 -- -- 51
2020-08-09 03:00:00 21.5 4 Norte 9 Norte 0 -- -- 52
2020-08-09 02:00:00 22.2 5 Noroeste 11 Sudoeste 0 -- -- 52
2020-08-09 01:00:00 24 10 Sudoeste 14 Noroeste 0 -- -- 46
2020-08-09 00:00:00 24.1 10 Norte 18 Noroeste 0 -- -- 49
2020-08-08 23:00:00 24.8 8 Noroeste 10 Noroeste 0 -- -- 49
2020-08-08 22:00:00 27.5 6 Sudeste 14 Este 0 -- -- 42
2020-08-08 21:00:00 29.9 10 Sudeste 21 Sudeste 0 -- -- 37
2020-08-08 20:00:00 32.6 14 Sudeste 28 Sudeste 0 -- -- 33
2020-08-08 19:00:00 34.9 17 Sudeste 28 Sudeste 0 -- -- 29
2020-08-08 18:00:00 35.8 18 Sudeste 29 Sudeste 0 -- -- 24
2020-08-08 17:00:00 37.2 21 Sudeste 33 Sudeste 0 -- -- 20
2020-08-08 16:00:00 37.2 18 Sudeste 29 Sudeste 0 -- -- 20
2020-08-08 15:00:00 37.2 18 Sudeste 28 Sudeste 0 -- -- 18
2020-08-08 14:00:00 36.1 17 Sudeste 31 Este 0 -- -- 16
2020-08-08 13:00:00 35.7 10 Sudeste 18 Sudeste 0 -- -- 16
2020-08-08 12:00:00 33.1 9 Sudeste 14 Sudeste 0 -- -- 22
2020-08-08 11:00:00 29.8 4 Sudeste 10 Sudeste 0 -- -- 32
2020-08-08 10:00:00 26.1 2 Sur 4 Sur 0 -- -- 44
2020-08-08 09:00:00 22.4 0 Calma 8 Norte 0 -- -- 53
2020-08-08 08:00:00 18.8 2 Sudoeste 12 Noroeste 0 -- -- 64
2020-08-08 07:00:00 17.9 0 Calma 5 Oeste 0 -- -- 66
2020-08-08 06:00:00 18.2 2 Sudeste 9 Sudoeste 0 -- -- 66
2020-08-08 05:00:00 20.7 8 Noroeste 16 Noroeste 0 -- -- 58
2020-08-08 04:00:00 19.5 2 Oeste 5 Noroeste 0 -- -- 63
2020-08-08 03:00:00 20 2 Noroeste 10 Noroeste 0 -- -- 61
2020-08-08 02:00:00 21.1 10 Noroeste 12 Noroeste 0 -- -- 60
2020-08-08 01:00:00 20.9 2 Noroeste 14 Noroeste 0 -- -- 57
2020-08-08 00:00:00 22.2 4 Noroeste 5 Noroeste 0 -- -- 54
2020-08-07 23:00:00 24.1 3 Nordeste 10 Este 0 -- -- 48
2020-08-07 22:00:00 25.9 9 Este 12 Este 0 -- -- 44
2020-08-07 21:00:00 28.5 10 Este 25 Sudeste 0 -- -- 39
2020-08-07 20:00:00 31 18 Sudeste 26 Sudeste 0 -- -- 34
2020-08-07 19:00:00 33.2 18 Sudeste 27 Sudeste 0 -- -- 31
2020-08-07 18:00:00 34.3 16 Sudeste 29 Este 0 -- -- 29
2020-08-07 17:00:00 34.7 17 Sudeste 29 Este 0 -- -- 25
2020-08-07 16:00:00 35.1 15 Sudeste 25 Sur 0 -- -- 22
2020-08-07 15:00:00 34.2 14 Sudeste 30 Sudeste 0 -- -- 21
2020-08-07 14:00:00 34 18 Sur 29 Sudeste 0 -- -- 20
2020-08-07 13:00:00 32.2 13 Sudeste 21 Sudeste 0 -- -- 27
2020-08-07 12:00:00 30.8 8 Sudeste 15 Sudeste 0 -- -- 28
2020-08-07 11:00:00 27.8 5 Sudeste 11 Sudoeste 0 -- -- 37
2020-08-07 10:00:00 24.5 8 Sudoeste 12 Sur 0 -- -- 50
2020-08-07 09:00:00 20.9 3 Sudoeste 6 Sudoeste 0 -- -- 65
2020-08-07 08:00:00 18.1 2 Sur 6 Noroeste 0 -- -- 75
2020-08-07 07:00:00 18.4 3 Norte 11 Oeste 0 -- -- 71
2020-08-07 06:00:00 19 4 Sudoeste 15 Noroeste 0 -- -- 74
2020-08-07 05:00:00 19 2 Sudoeste 11 Noroeste 0 -- -- 74
2020-08-07 04:00:00 19.4 6 Oeste 12 Norte 0 -- -- 76
2020-08-07 03:00:00 19.6 3 Oeste 7 Noroeste 0 -- -- 73
2020-08-07 02:00:00 20.1 5 Norte 8 Norte 0 -- -- 72
2020-08-07 01:00:00 21.3 0 Calma 6 Oeste 0 -- -- 65
2020-08-07 00:00:00 22 0 Calma 8 Sudeste 0 -- -- 65
2020-08-06 23:00:00 23 0 Calma 12 Este 0 -- -- 61
2020-08-06 22:00:00 24.4 3 Sudeste 20 Este 0 -- -- 58
2020-08-06 21:00:00 26.1 14 Este 27 Sudeste 0 -- -- 52
2020-08-06 20:00:00 29.1 16 Este 26 Este 0 -- -- 44
2020-08-06 19:00:00 31.1 16 Sudeste 24 Este 0 -- -- 40
2020-08-06 18:00:00 32.7 16 Sudeste 35 Sur 0 -- -- 38
2020-08-06 17:00:00 34.2 19 Sudeste 31 Sur 0 -- -- 34
2020-08-06 16:00:00 33.4 15 Sudeste 27 Sudeste 0 -- -- 34
2020-08-06 15:00:00 33 11 Sudeste 23 Sudeste 0 -- -- 35
2020-08-06 14:00:00 32.1 14 Sur 21 Sudeste 0 -- -- 32
2020-08-06 13:00:00 30.1 10 Sur 33 Sudeste 0 -- -- 38
2020-08-06 12:00:00 28.5 10 Sudeste 20 Sur 0 -- -- 39
2020-08-06 11:00:00 25.8 5 Sur 13 Sur 0 -- -- 51
2020-08-06 10:00:00 23.6 5 Sur 9 Sudeste 0 -- -- 57
2020-08-06 09:00:00 21.1 0 Calma 4 Norte 0 -- -- 77
2020-08-06 08:00:00 17.9 0 Calma 7 Noroeste 0 -- -- 85
2020-08-06 07:00:00 17.7 5 Noroeste 8 Norte 0 -- -- 87
2020-08-06 06:00:00 17.6 5 Norte 7 Norte 0 -- -- 89
2020-08-06 05:00:00 18 2 Norte 4 Norte 0 -- -- 85
2020-08-06 04:00:00 18.9 2 Norte 3 Norte 0 -- -- 83
2020-08-06 03:00:00 19.6 0 Calma 5 Sudoeste 0 -- -- 78
2020-08-06 02:00:00 20.7 3 Oeste 6 Nordeste 0 -- -- 79
2020-08-06 01:00:00 21.3 6 Este 9 Este 0 -- -- 74
2020-08-06 00:00:00 22.6 3 Sur 9 Este 0 -- -- 71
2020-08-05 23:00:00 23.5 5 Este 9 Este 0 -- -- 68
2020-08-05 22:00:00 24.7 7 Este 18 Este 0 -- -- 64
2020-08-05 21:00:00 26.7 13 Este 23 Este 0 -- -- 57
2020-08-05 20:00:00 29.4 15 Este 26 Este 0 -- -- 51
2020-08-05 19:00:00 31.4 16 Sudeste 26 Sudeste 0 -- -- 45
2020-08-05 18:00:00 32 18 Sudeste 38 Sur 0 -- -- 43
2020-08-05 17:00:00 33.3 21 Sudeste 34 Sudeste 0 -- -- 39
2020-08-05 16:00:00 32.7 18 Sudeste 32 Sudeste 0 -- -- 39
2020-08-05 15:00:00 32.3 10 Sudeste 26 Sudeste 0 -- -- 38
2020-08-05 14:00:00 31.9 15 Sudeste 23 Sudeste 0 -- -- 38
2020-08-05 13:00:00 30.4 10 Sudeste 22 Sudeste 0 -- -- 40
2020-08-05 12:00:00 28.4 7 Sur 19 Sur 0 -- -- 45
2020-08-05 11:00:00 25.7 5 Sudeste 15 Sur 0 -- -- 56
2020-08-05 10:00:00 22.9 4 Sur 10 Sur 0 -- -- 71
2020-08-05 09:00:00 20.6 2 Oeste 7 Nordeste 0 -- -- 85
2020-08-05 08:00:00 18.5 5 Nordeste 10 Nordeste 0 -- -- 92
2020-08-05 07:00:00 18.6 3 Norte 5 Norte 0 -- -- 92
2020-08-05 06:00:00 18.4 4 Norte 6 Nordeste 0 -- -- 91
2020-08-05 05:00:00 19.3 4 Nordeste 7 Sudoeste 0 -- -- 87
2020-08-05 04:00:00 20.6 3 Sur 6 Este 0 -- -- 88
2020-08-05 03:00:00 21 4 Este 9 Este 0 -- -- 87
2020-08-05 02:00:00 21.2 3 Sudeste 7 Sudeste 0 -- -- 87
2020-08-05 01:00:00 21 4 Este 8 Este 0 -- -- 86
2020-08-05 00:00:00 21.6 3 Este 12 Este 0 -- -- 83
2020-08-04 23:00:00 22.5 7 Este 14 Sudeste 0 -- -- 81
2020-08-04 22:00:00 23.6 10 Este 21 Este 0 -- -- 75
2020-08-04 21:00:00 26 14 Sudeste 24 Sudeste 0 -- -- 63
2020-08-04 20:00:00 28 17 Sudeste 30 Sudeste 0 -- -- 55
2020-08-04 19:00:00 29.9 20 Este 35 Sudeste 0 -- -- 51
2020-08-04 18:00:00 31.1 21 Sudeste 31 Sur 0 -- -- 47
2020-08-04 17:00:00 32.8 15 Sudeste 26 Sudeste 0 -- -- 42
2020-08-04 16:00:00 32.8 18 Sur 28 Sudeste 0 -- -- 41
2020-08-04 15:00:00 31.2 18 Sudeste 32 Sudeste 0 -- -- 46
2020-08-04 14:00:00 30 15 Sudeste 28 Sudeste 0 -- -- 47
2020-08-04 13:00:00 28.3 9 Sur 22 Sur 0 -- -- 54
2020-08-04 12:00:00 27 8 Sudeste 19 Sudeste 0 -- -- 60
2020-08-04 11:00:00 26.1 8 Sudeste 17 Sudeste 0 -- -- 67
2020-08-04 10:00:00 23.5 9 Sudeste 16 Este 0 -- -- 78
2020-08-04 09:00:00 22.5 9 Sudeste 12 Sudeste 0 -- -- 85
2020-08-04 08:00:00 21.8 4 Sudeste 12 Sudeste 0 -- -- 90
2020-08-04 07:00:00 21.6 6 Sudeste 14 Este 0 -- -- 90
2020-08-04 06:00:00 21.7 8 Este 14 Este 0 -- -- 91
2020-08-04 05:00:00 22 8 Este 14 Este 0 -- -- 90
2020-08-04 04:00:00 22.1 6 Sudeste 10 Este 0 -- -- 90
2020-08-04 03:00:00 22.1 6 Este 10 Sudeste 0 -- -- 90
2020-08-04 02:00:00 22.3 6 Este 10 Este 0 -- -- 89
2020-08-04 01:00:00 22.9 4 Este 9 Sur 0 -- -- 89
2020-08-04 00:00:00 22.9 4 Sudeste 10 Sudeste 0 -- -- 89
2020-08-03 23:00:00 23.2 6 Sudeste 14 Este 0 -- -- 87
2020-08-03 22:00:00 23.3 9 Sudeste 16 Este 0 -- -- 87
2020-08-03 21:00:00 24.2 10 Sudeste 20 Sur 0.4 -- -- 84
2020-08-03 20:00:00 25.9 8 Este 44 Este 3.6 -- -- 79
2020-08-03 19:00:00 30.9 20 Sudeste 31 Sudeste 0 -- -- 52
2020-08-03 18:00:00 32.9 20 Sudeste 31 Sudeste 0 -- -- 46
2020-08-03 17:00:00 32 16 Sudeste 29 Sudeste 0 -- -- 40
2020-08-03 16:00:00 35 15 Sudeste 28 Sudeste 0 -- -- 33
2020-08-03 15:00:00 31.3 18 Este 26 Este 0 -- -- 42
2020-08-03 14:00:00 34 9 Este 23 Sudeste 0 -- -- 32
2020-08-03 13:00:00 33 6 Sur 21 Sudeste 0 -- -- 33
2020-08-03 12:00:00 32.1 6 Este 12 Este 0 -- -- 35
2020-08-03 11:00:00 29.5 6 Sur 12 Sudeste 0 -- -- 36
2020-08-03 10:00:00 25.1 5 Sur 8 Sur 0 -- -- 49
2020-08-03 09:00:00 21.9 8 Este 13 Nordeste 0 -- -- 46
2020-08-03 08:00:00 18.3 5 Norte 9 Norte 0 -- -- 65
2020-08-03 07:00:00 19 3 Sudeste 9 Noroeste 0 -- -- 56
2020-08-03 06:00:00 21.4 8 Nordeste 22 Oeste 0 -- -- 36
2020-08-03 05:00:00 19.7 6 Norte 11 Norte 0 -- -- 50
2020-08-03 04:00:00 19.9 3 Sudeste 12 Sudeste 0 -- -- 60
2020-08-03 03:00:00 21 2 Noroeste 17 Norte 0 -- -- 56
2020-08-03 02:00:00 22.1 5 Noroeste 12 Norte 0 -- -- 55
2020-08-03 01:00:00 23 4 Sudeste 13 Noroeste 0 -- -- 47
2020-08-03 00:00:00 23.7 4 Norte 12 Noroeste 0 -- -- 46
2020-08-02 23:00:00 25.2 4 Noroeste 6 Sudoeste 0 -- -- 45
2020-08-02 22:00:00 27.9 4 Sur 11 Sur 0 -- -- 40
2020-08-02 21:00:00 31.1 9 Sur 20 Sudeste 0 -- -- 32
2020-08-02 20:00:00 34.4 15 Sudeste 28 Sudeste 0 -- -- 26
2020-08-02 19:00:00 35.6 20 Sudeste 36 Sudeste 0 -- -- 24
2020-08-02 18:00:00 36.5 23 Sudeste 41 Sudeste 0 -- -- 22
2020-08-02 17:00:00 35.9 24 Sudeste 39 Sudeste 0 -- -- 34
2020-08-02 16:00:00 36.3 27 Sudeste 39 Este 0 -- -- 38
2020-08-02 15:00:00 38 22 Sudeste 43 Este 0 -- -- 31
2020-08-02 14:00:00 38.7 27 Sudeste 38 Sudeste 0 -- -- 21
2020-08-02 13:00:00 39.6 21 Sudeste 30 Sudeste 0 -- -- 15
2020-08-02 12:00:00 39.4 13 Sur 19 Sudeste 0 -- -- 15
2020-08-02 11:00:00 35.6 4 Sur 12 Sur 0 -- -- 16
2020-08-02 10:00:00 31.8 8 Norte 12 Norte 0 -- -- 20
2020-08-02 09:00:00 28 9 Norte 14 Norte 0 -- -- 26
2020-08-02 08:00:00 25.1 11 Norte 19 Noroeste 0 -- -- 29
2020-08-02 07:00:00 27.2 12 Noroeste 23 Noroeste 0 -- -- 26
2020-08-02 06:00:00 27.5 9 Nordeste 18 Nordeste 0 -- -- 26
2020-08-02 05:00:00 27.6 12 Nordeste 21 Noroeste 0 -- -- 28
2020-08-02 04:00:00 26.6 9 Nordeste 25 Oeste 0 -- -- 30
2020-08-02 03:00:00 24.8 5 Sur 27 Oeste 0 -- -- 39
2020-08-02 02:00:00 25.9 15 Nordeste 25 Este 0 -- -- 36
2020-08-02 01:00:00 24.9 5 Este 15 Norte 0 -- -- 46
2020-08-02 00:00:00 26.3 9 Norte 13 Norte 0 -- -- 44
2020-08-01 23:00:00 27.6 11 Noroeste 13 Noroeste 0 -- -- 42
2020-08-01 22:00:00 28.5 8 Noroeste 11 Noroeste 0 -- -- 43
2020-08-01 21:00:00 31.9 6 Norte 10 Norte 0 -- -- 41
2020-08-01 20:00:00 35.5 5 Nordeste 19 Sudeste 0 -- -- 33
2020-08-01 19:00:00 36.6 14 Sudeste 22 Sudeste 0 -- -- 30
2020-08-01 18:00:00 33.3 7 Norte 35 Este 0 -- -- 39
2020-08-01 17:00:00 32.4 26 Nordeste 64 Nordeste 0 -- -- 37
2020-08-01 16:00:00 41.3 22 Sudeste 42 Sudeste 0 -- -- 22
2020-08-01 15:00:00 42.4 21 Sur 37 Sur 0 -- -- 18
2020-08-01 14:00:00 43 12 Sur 39 Sudoeste 0 -- -- 16
2020-08-01 13:00:00 40.8 21 Sudoeste 37 Sudoeste 0 -- -- 16
2020-08-01 12:00:00 36.2 5 Norte 14 Norte 0 -- -- 24
2020-08-01 11:00:00 34 4 Oeste 18 Oeste 0 -- -- 26
2020-08-01 10:00:00 31.9 8 Oeste 20 Noroeste 0 -- -- 27
2020-08-01 09:00:00 29.3 9 Norte 24 Noroeste 0 -- -- 27
2020-08-01 08:00:00 28.5 14 Noroeste 21 Noroeste 0 -- -- 28
2020-08-01 07:00:00 27.5 13 Noroeste 27 Noroeste 0 -- -- 28
2020-08-01 06:00:00 28.2 12 Noroeste 19 Noroeste 0 -- -- 27
2020-08-01 05:00:00 24.8 2 Norte 13 Norte 0 -- -- 38
2020-08-01 04:00:00 23.7 7 Norte 10 Norte 0 -- -- 40
2020-08-01 03:00:00 24.6 0 Calma 18 Oeste 0 -- -- 43
2020-08-01 02:00:00 28 8 Noroeste 15 Noroeste 0 -- -- 30
2020-08-01 01:00:00 25.8 2 Sudoeste 14 Norte 0 -- -- 52
2020-08-01 00:00:00 26 5 Norte 11 Noroeste 0 -- -- 52
2020-07-31 23:00:00 26.9 5 Noroeste 9 Noroeste 0 -- -- 51
2020-07-31 22:00:00 29.3 0 Calma 12 Sudeste 0 -- -- 44
2020-07-31 21:00:00 33.1 5 Sur 16 Sudeste 0 -- -- 37
2020-07-31 20:00:00 36.1 10 Sudeste 22 Sudeste 0 -- -- 32
2020-07-31 19:00:00 37.9 15 Sudeste 26 Sudeste 0 -- -- 29
2020-07-31 18:00:00 38.8 20 Sudeste 31 Sudeste 0 -- -- 29
2020-07-31 17:00:00 39.2 18 Sudeste 30 Este 0 -- -- 27
2020-07-31 16:00:00 38.4 23 Sudeste 40 Este 0 -- -- 27
2020-07-31 15:00:00 39.8 25 Sudeste 37 Sudeste 0 -- -- 23
2020-07-31 14:00:00 39 16 Sudeste 25 Sudeste 0 -- -- 23
2020-07-31 13:00:00 38.4 9 Sudeste 23 Sur 0 -- -- 23
2020-07-31 12:00:00 36 8 Sudeste 16 Sudeste 0 -- -- 25
2020-07-31 11:00:00 33.1 5 Sur 11 Sur 0 -- -- 30
2020-07-31 10:00:00 28.6 4 Sur 8 Sudeste 0 -- -- 40
2020-07-31 09:00:00 24.1 3 Sudoeste 6 Sur 0 -- -- 52
2020-07-31 08:00:00 20.1 3 Sudoeste 5 Sudoeste 0 -- -- 67
2020-07-31 07:00:00 19.4 3 Sudoeste 5 Norte 0 -- -- 70
2020-07-31 06:00:00 20.7 2 Oeste 12 Noroeste 0 -- -- 63
2020-07-31 05:00:00 20.9 8 Noroeste 13 Norte 0 -- -- 64
2020-07-31 04:00:00 21.4 2 Noroeste 12 Noroeste 0 -- -- 62
2020-07-31 03:00:00 21.7 3 Sudeste 14 Noroeste 0 -- -- 66
2020-07-31 02:00:00 23.6 13 Noroeste 15 Noroeste 0 -- -- 62
2020-07-31 01:00:00 22.9 4 Norte 5 Norte 0 -- -- 64
2020-07-31 00:00:00 24.2 0 Calma 5 Norte 0 -- -- 60
2020-07-30 23:00:00 25.8 2 Sur 12 Sur 0 -- -- 57
2020-07-30 22:00:00 27.7 8 Sur 18 Este 0 -- -- 49
2020-07-30 21:00:00 31.8 9 Sudeste 26 Nordeste 0 -- -- 39
2020-07-30 20:00:00 32.9 17 Nordeste 32 Nordeste 0 -- -- 37
2020-07-30 19:00:00 34.2 17 Este 33 Este 0 -- -- 38
2020-07-30 18:00:00 36.6 20 Este 33 Este 0 -- -- 35
2020-07-30 17:00:00 38.1 19 Sudeste 35 Sudeste 0 -- -- 29
2020-07-30 16:00:00 39.2 22 Sur 32 Sur 0 -- -- 26
2020-07-30 15:00:00 38.7 15 Sudeste 27 Este 0 -- -- 23
2020-07-30 14:00:00 37.2 13 Sur 24 Sudeste 0 -- -- 26
2020-07-30 13:00:00 34.7 9 Sur 18 Sur 0 -- -- 33
2020-07-30 12:00:00 31.9 7 Sur 15 Sur 0 -- -- 39
2020-07-30 11:00:00 29.1 6 Sudeste 18 Sudoeste 0 -- -- 46
2020-07-30 10:00:00 26.3 5 Sudoeste 10 Sudoeste 0 -- -- 57
2020-07-30 09:00:00 24.2 3 Sudeste 6 Sudeste 0 -- -- 53
2020-07-30 08:00:00 20.7 6 Norte 11 Noroeste 0 -- -- 61
2020-07-30 07:00:00 22 10 Noroeste 14 Noroeste 0 -- -- 59
2020-07-30 06:00:00 23 11 Norte 25 Noroeste 0 -- -- 56
2020-07-30 05:00:00 22.3 14 Norte 19 Norte 0 -- -- 60
2020-07-30 04:00:00 21.9 13 Oeste 24 Oeste 0 -- -- 64
2020-07-30 03:00:00 22.3 7 Noroeste 21 Nordeste 0 -- -- 63
2020-07-30 02:00:00 21.9 11 Nordeste 29 Sudoeste 0 -- -- 65
2020-07-30 01:00:00 22 4 Norte 20 Sudeste 0 -- -- 66
2020-07-30 00:00:00 22.9 13 Sudeste 27 Sur 0 -- -- 65
2020-07-29 23:00:00 24.7 16 Sur 25 Sur 0 -- -- 58
2020-07-29 22:00:00 26.4 6 Este 20 Sur 0 -- -- 51
2020-07-29 21:00:00 28.4 8 Sudeste 15 Sudeste 0 -- -- 48
2020-07-29 20:00:00 30.8 10 Sudeste 25 Este 0 -- -- 42
2020-07-29 19:00:00 34.7 19 Este 38 Este 0 -- -- 36
2020-07-29 18:00:00 36.1 22 Este 35 Este 0 -- -- 32
2020-07-29 17:00:00 37.4 17 Sudeste 33 Sur 0 -- -- 28
2020-07-29 16:00:00 37.8 17 Sudeste 27 Sur 0 -- -- 30
2020-07-29 15:00:00 36.5 13 Sudeste 23 Sudeste 0 -- -- 34
2020-07-29 14:00:00 35.2 9 Sudeste 27 Sudoeste 0 -- -- 37
2020-07-29 13:00:00 33.4 9 Sudeste 21 Este 0 -- -- 41
2020-07-29 12:00:00 32.2 9 Sur 22 Sur 0 -- -- 42
2020-07-29 11:00:00 30.1 8 Sur 19 Sudeste 0 -- -- 44
2020-07-29 10:00:00 28.2 5 Sudeste 12 Sudeste 0 -- -- 48
2020-07-29 09:00:00 24.2 7 Norte 10 Norte 0 -- -- 59
2020-07-29 08:00:00 21.4 0 Calma 22 Noroeste 0 -- -- 69
2020-07-29 07:00:00 21.6 10 Norte 14 Norte 0 -- -- 69
2020-07-29 06:00:00 21.2 4 Este 21 Noroeste 0 -- -- 71
2020-07-29 05:00:00 22.4 9 Noroeste 19 Noroeste 0 -- -- 71
2020-07-29 04:00:00 21.9 7 Noroeste 17 Noroeste 0 -- -- 73
2020-07-29 03:00:00 21.6 10 Norte 14 Norte 0 -- -- 74
2020-07-29 02:00:00 22.2 4 Oeste 6 Noroeste 0 -- -- 76
2020-07-29 01:00:00 23.3 0 Calma 7 Sudoeste 0 -- -- 72
2020-07-29 00:00:00 24.2 7 Sur 9 Sur 0 -- -- 67
2020-07-28 23:00:00 25.7 6 Sur 12 Sudeste 0 -- -- 61
2020-07-28 22:00:00 27.7 7 Sudeste 15 Este 0 -- -- 54
2020-07-28 21:00:00 30.7 10 Este 21 Este 0 -- -- 47
2020-07-28 20:00:00 34.3 15 Este 33 Este 0 -- -- 40
2020-07-28 19:00:00 35.9 18 Este 32 Sudeste 0 -- -- 36
2020-07-28 18:00:00 37.6 18 Sudeste 34 Sudeste 0 -- -- 28
2020-07-28 17:00:00 37.4 18 Sudeste 33 Sudeste 0 -- -- 29
2020-07-28 16:00:00 37.7 21 Sudeste 33 Sudeste 0 -- -- 28
2020-07-28 15:00:00 37.5 18 Sudeste 29 Este 0 -- -- 24
2020-07-28 14:00:00 38.1 12 Sudeste 25 Este 0 -- -- 23
2020-07-28 13:00:00 36.8 9 Sudeste 24 Este 0 -- -- 23
2020-07-28 12:00:00 35.6 8 Sudeste 17 Este 0 -- -- 24
2020-07-28 11:00:00 33.6 9 Sudeste 14 Sudeste 0 -- -- 27
2020-07-28 10:00:00 30 7 Sur 10 Sur 0 -- -- 31
2020-07-28 09:00:00 25 5 Sur 8 Sudoeste 0 -- -- 41
2020-07-28 08:00:00 21.3 6 Sudoeste 8 Sudoeste 0 -- -- 49
2020-07-28 07:00:00 21.3 7 Oeste 13 Noroeste 0 -- -- 49
2020-07-28 06:00:00 22.4 12 Noroeste 21 Norte 0 -- -- 46
2020-07-28 05:00:00 20.6 2 Sudoeste 15 Noroeste 0 -- -- 50
2020-07-28 04:00:00 22.3 12 Noroeste 18 Noroeste 0 -- -- 46
2020-07-28 03:00:00 21.9 8 Noroeste 13 Noroeste 0 -- -- 47
2020-07-28 02:00:00 22.1 9 Noroeste 11 Noroeste 0 -- -- 48
2020-07-28 01:00:00 22 5 Norte 8 Norte 0 -- -- 50
2020-07-28 00:00:00 23 5 Norte 8 Norte 0 -- -- 48
2020-07-27 23:00:00 25 2 Sur 10 Sur 0 -- -- 42
2020-07-27 22:00:00 27 7 Sudeste 19 Este 0 -- -- 37
2020-07-27 21:00:00 30.2 14 Sudeste 25 Este 0 -- -- 32
2020-07-27 20:00:00 33.9 15 Sudeste 35 Este 0 -- -- 26
2020-07-27 19:00:00 36.4 19 Este 34 Este 0 -- -- 23
2020-07-27 18:00:00 37.4 22 Sudeste 40 Sudeste 0 -- -- 23
2020-07-27 17:00:00 37.8 21 Sudeste 35 Sudeste 0 -- -- 24
2020-07-27 16:00:00 38 21 Sudeste 35 Sudeste 0 -- -- 21
2020-07-27 15:00:00 38.7 19 Sudeste 28 Sudeste 0 -- -- 22
2020-07-27 14:00:00 35.8 15 Sudeste 29 Sudeste 0 -- -- 25
2020-07-27 13:00:00 37.8 18 Sudeste 26 Sudeste 0 -- -- 20
2020-07-27 12:00:00 37.4 14 Sudeste 26 Sudeste 0 -- -- 22
2020-07-27 09:00:00 -- -- -- -- -- -- -- -- --
2020-07-27 08:00:00 20.4 2 Norte 6 Noroeste 0 -- -- 59
2020-07-27 07:00:00 19.6 5 Noroeste 8 Noroeste 0 -- -- 58
2020-07-27 06:00:00 21 3 Sudoeste 16 Noroeste 0 -- -- 57
2020-07-27 05:00:00 21.6 12 Norte 16 Noroeste 0 -- -- 54
2020-07-27 04:00:00 20.4 9 Noroeste 12 Noroeste 0 -- -- 61
2020-07-27 03:00:00 21.5 11 Noroeste 14 Noroeste 0 -- -- 58
2020-07-27 02:00:00 21.7 7 Noroeste 8 Noroeste 0 -- -- 60
2020-07-27 01:00:00 22.1 5 Norte 7 Sudoeste 0 -- -- 58
2020-07-27 00:00:00 24 6 Sudoeste 12 Sudoeste 0 -- -- 52
2020-07-26 23:00:00 24.7 8 Sur 12 Sur 0 -- -- 50
2020-07-26 22:00:00 26.8 5 Sudeste 15 Sudeste 0 -- -- 44
2020-07-26 21:00:00 30.3 11 Sudeste 24 Sudeste 0 -- -- 34
2020-07-26 20:00:00 34.5 17 Sudeste 26 Sudeste 0 -- -- 31
2020-07-26 19:00:00 36.5 18 Sudeste 32 Sudeste 0 -- -- 30
2020-07-26 18:00:00 37.6 22 Sudeste 35 Este 0 -- -- 29
2020-07-26 17:00:00 39 19 Sudeste 35 Sudeste 0 -- -- 22
2020-07-26 16:00:00 39.9 15 Sudeste 28 Sur 0 -- -- 19
2020-07-26 15:00:00 39.1 17 Sudeste 26 Sudeste 0 -- -- 18
2020-07-26 14:00:00 38.8 11 Sudeste 24 Sudeste 0 -- -- 19
2020-07-26 13:00:00 37.1 10 Sudeste 20 Sudeste 0 -- -- 20
2020-07-26 12:00:00 35.7 12 Sudeste 20 Sudeste 0 -- -- 25
2020-07-26 11:00:00 32.7 8 Sur 14 Sur 0 -- -- 33
2020-07-26 10:00:00 28.6 3 Sur 5 Sudeste 0 -- -- 45
2020-07-26 09:00:00 23.6 2 Sur 5 Este 0 -- -- 59
2020-07-26 08:00:00 19.9 4 Nordeste 9 Noroeste 0 -- -- 73
2020-07-26 07:00:00 19.2 8 Noroeste 14 Noroeste 0 -- -- 74
2020-07-26 06:00:00 18.6 7 Noroeste 11 Noroeste 0 -- -- 77
2020-07-26 05:00:00 18.9 2 Norte 8 Norte 0 -- -- 76
2020-07-26 04:00:00 19.1 2 Nordeste 4 Noroeste 0 -- -- 74
2020-07-26 03:00:00 20.2 3 Norte 6 Norte 0 -- -- 70
2020-07-26 02:00:00 21.7 4 Noroeste 7 Noroeste 0 -- -- 66
2020-07-26 01:00:00 23.3 7 Sudoeste 11 Sudoeste 0 -- -- 63
2020-07-26 00:00:00 24.3 6 Sudoeste 10 Sudoeste 0 -- -- 61
2020-07-25 23:00:00 25.2 4 Este 9 Sudeste 0 -- -- 57
2020-07-25 22:00:00 26.9 2 Nordeste 18 Este 0 -- -- 53
2020-07-25 21:00:00 29.9 13 Este 26 Sudeste 0 -- -- 46
2020-07-25 20:00:00 33.4 18 Sudeste 36 Este 0 -- -- 35
2020-07-25 19:00:00 34.9 23 Sudeste 35 Este 0 -- -- 33
2020-07-25 18:00:00 36.6 24 Sudeste 37 Sudeste 0 -- -- 27
2020-07-25 17:00:00 36.5 22 Sudeste 37 Sudeste 0 -- -- 30
2020-07-25 16:00:00 36.3 19 Sudeste 30 Sudeste 0 -- -- 30
2020-07-25 15:00:00 35.8 17 Sudeste 29 Sudeste 0 -- -- 30
2020-07-25 14:00:00 34.4 12 Sudeste 25 Este 0 -- -- 32
2020-07-25 13:00:00 33.2 8 Sudeste 22 Sudeste 0 -- -- 34
2020-07-25 12:00:00 31.7 12 Sur 22 Sudeste 0 -- -- 40
2020-07-25 11:00:00 28.7 8 Sur 13 Sur 0 -- -- 48
2020-07-25 10:00:00 25.7 5 Sudeste 10 Norte 0 -- -- 65
2020-07-25 09:00:00 22.8 3 Norte 9 Noroeste 0 -- -- 72
2020-07-25 08:00:00 19.7 6 Norte 8 Norte 0 -- -- 84
2020-07-25 07:00:00 18.3 3 Noroeste 6 Norte 0 -- -- 88
2020-07-25 06:00:00 18.4 4 Norte 5 Norte 0 -- -- 87
2020-07-25 05:00:00 19.2 3 Norte 7 Norte 0 -- -- 84
2020-07-25 04:00:00 20.3 0 Calma 5 Nordeste 0 -- -- 82
2020-07-25 03:00:00 20.9 4 Norte 6 Noroeste 0 -- -- 83
2020-07-25 02:00:00 21.3 3 Nordeste 5 Nordeste 0 -- -- 81
2020-07-25 01:00:00 22.7 0 Calma 10 Sudeste 0 -- -- 77
2020-07-25 00:00:00 23.6 3 Sudeste 9 Este 0 -- -- 74
2020-07-24 23:00:00 24.7 3 Este 17 Este 0 -- -- 72
2020-07-24 22:00:00 26.5 9 Sudeste 25 Este 0 -- -- 63
2020-07-24 21:00:00 29.1 17 Este 23 Este 0 -- -- 51
2020-07-24 20:00:00 32.5 14 Sudeste 34 Sudeste 0 -- -- 42
2020-07-24 19:00:00 34.4 22 Sudeste 33 Este 0 -- -- 33
2020-07-24 18:00:00 34.8 19 Este 33 Este 0 -- -- 35
2020-07-24 17:00:00 35.7 21 Sudeste 41 Sudeste 0 -- -- 37
2020-07-24 16:00:00 36.6 22 Sudeste 37 Este 0 -- -- 33
2020-07-24 15:00:00 36.7 20 Sudeste 33 Este 0 -- -- 29
2020-07-24 14:00:00 36.8 20 Este 32 Sudeste 0 -- -- 31
2020-07-24 13:00:00 36.8 21 Sudeste 31 Sur 0 -- -- 31
2020-07-24 12:00:00 35 7 Nordeste 21 Este 0 -- -- 31
2020-07-24 11:00:00 32.8 7 Sudoeste 14 Sur 0 -- -- 36
2020-07-24 10:00:00 30.5 3 Noroeste 8 Nordeste 0 -- -- 39
2020-07-24 09:00:00 27.6 4 Nordeste 21 Noroeste 0 -- -- 45
2020-07-24 08:00:00 23.9 10 Norte 18 Norte 0 -- -- 56
2020-07-24 07:00:00 22.9 10 Norte 21 Noroeste 0 -- -- 60
2020-07-24 06:00:00 22.5 7 Noroeste 12 Norte 0 -- -- 62
2020-07-24 05:00:00 20.1 2 Sur 6 Oeste 0 -- -- 71
2020-07-24 04:00:00 20.8 2 Sur 12 Norte 0 -- -- 70
2020-07-24 03:00:00 20.8 0 Calma 7 Norte 0 -- -- 71
2020-07-24 02:00:00 21.7 6 Norte 9 Noroeste 0 -- -- 68
2020-07-24 01:00:00 22.4 3 Noroeste 7 Noroeste 0 -- -- 67
2020-07-24 00:00:00 23.5 5 Noroeste 8 Noroeste 0 -- -- 64
2020-07-23 23:00:00 24.1 3 Este 16 Este 0 -- -- 62
2020-07-23 22:00:00 25.4 7 Nordeste 18 Este 0 -- -- 56
2020-07-23 21:00:00 28.1 13 Este 24 Sudeste 0 -- -- 47
2020-07-23 20:00:00 32.4 15 Sudeste 28 Este 0 -- -- 40
2020-07-23 19:00:00 33.4 18 Sudeste 33 Sudeste 0 -- -- 38
2020-07-23 18:00:00 34.5 19 Sudeste 34 Sur 0 -- -- 36
2020-07-23 17:00:00 35.7 21 Sur 32 Sudeste 0 -- -- 32
2020-07-23 16:00:00 35.7 16 Sudeste 29 Sudeste 0 -- -- 30
2020-07-23 15:00:00 35.1 15 Este 40 Este 0 -- -- 30
2020-07-23 14:00:00 34.3 12 Sudeste 26 Sudeste 0 -- -- 31
2020-07-23 13:00:00 33.2 9 Sudeste 24 Sudeste 0 -- -- 31
2020-07-23 12:00:00 31.7 9 Sur 17 Sur 0 -- -- 33
2020-07-23 11:00:00 29.7 7 Sur 12 Sudoeste 0 -- -- 34
2020-07-23 10:00:00 26.2 3 Sur 7 Sur 0 -- -- 41
2020-07-23 09:00:00 23.3 5 Sudoeste 7 Sur 0 -- -- 48
2020-07-23 08:00:00 21 3 Sudeste 19 Noroeste 0 -- -- 53
2020-07-23 07:00:00 20.2 16 Norte 28 Noroeste 0 -- -- 53
2020-07-23 06:00:00 20.4 17 Norte 25 Noroeste 0 -- -- 52
2020-07-23 05:00:00 20 7 Noroeste 14 Noroeste 0 -- -- 56
2020-07-23 04:00:00 19.3 3 Noroeste 14 Norte 0 -- -- 64
2020-07-23 03:00:00 19.4 7 Noroeste 9 Norte 0 -- -- 65
2020-07-23 02:00:00 20.5 5 Norte 10 Oeste 0 -- -- 65
2020-07-23 01:00:00 21.5 8 Sudoeste 14 Oeste 0 -- -- 70
2020-07-23 00:00:00 22.4 9 Oeste 17 Sudoeste 0 -- -- 67
2020-07-22 23:00:00 23.8 9 Sudoeste 13 Sudoeste 0 -- -- 59
2020-07-22 22:00:00 25.7 9 Sur 18 Sur 0 -- -- 53
2020-07-22 21:00:00 27.8 9 Sudeste 22 Este 0 -- -- 41
2020-07-22 20:00:00 30.6 14 Sudeste 31 Sudeste 0 -- -- 41
2020-07-22 19:00:00 31.6 18 Sudeste 32 Este 0 -- -- 43
2020-07-22 18:00:00 32.4 18 Este 34 Este 0 -- -- 41
2020-07-22 17:00:00 33 19 Este 35 Sudeste 0 -- -- 39
2020-07-22 16:00:00 33.9 10 Este 26 Sudeste 0 -- -- 33
2020-07-22 15:00:00 33.5 13 Sudeste 32 Sudeste 0 -- -- 35
2020-07-22 14:00:00 32.2 12 Este 24 Este 0 -- -- 34
2020-07-22 13:00:00 32 9 Sudeste 27 Sudeste 0 -- -- 35
2020-07-22 12:00:00 30.1 11 Este 19 Sudeste 0 -- -- 38
2020-07-22 11:00:00 27.8 7 Nordeste 18 Noroeste 0 -- -- 41
2020-07-22 10:00:00 25 7 Norte 12 Norte 0 -- -- 46
2020-07-22 09:00:00 21.3 6 Sudoeste 10 Sur 0 -- -- 57
2020-07-22 08:00:00 18.4 9 Norte 19 Nordeste 0 -- -- 67
2020-07-22 07:00:00 18.2 11 Norte 20 Noroeste 0 -- -- 59
2020-07-22 06:00:00 19.8 7 Noroeste 20 Noroeste 0 -- -- 55
2020-07-22 05:00:00 19.1 12 Noroeste 18 Noroeste 0 -- -- 58
2020-07-22 04:00:00 20.6 12 Noroeste 19 Noroeste 0 -- -- 49
2020-07-22 03:00:00 20.3 4 Oeste 15 Noroeste 0 -- -- 53
2020-07-22 02:00:00 20.7 11 Noroeste 15 Noroeste 0 -- -- 59
2020-07-22 01:00:00 21.1 3 Sur 22 Sudeste 0 -- -- 60
2020-07-22 00:00:00 22.5 5 Sur 15 Sudoeste 0 -- -- 61
2020-07-21 23:00:00 24.3 7 Sudoeste 17 Oeste 0 -- -- 49
2020-07-21 22:00:00 26 8 Oeste 19 Noroeste 0 -- -- 34
2020-07-21 21:00:00 28.9 8 Sudeste 20 Sudeste 0 -- -- 30
2020-07-21 20:00:00 30.9 16 Sudeste 27 Sudeste 0 -- -- 27
2020-07-21 19:00:00 33.3 17 Sudeste 32 Sudeste 0 -- -- 25
2020-07-21 18:00:00 33.8 20 Sudeste 33 Sudeste 0 -- -- 27
2020-07-21 17:00:00 33.8 21 Sudeste 43 Sudeste 0 -- -- 28
2020-07-21 16:00:00 34.1 22 Sudeste 33 Sudeste 0 -- -- 30
2020-07-21 15:00:00 34.2 17 Sudeste 33 Sudeste 0 -- -- 27
2020-07-21 14:00:00 32.7 14 Este 24 Sudeste 0 -- -- 28
2020-07-21 13:00:00 32.9 15 Sudeste 27 Sudeste 0 -- -- 21
2020-07-21 12:00:00 32.6 12 Sudeste 27 Sur 0 -- -- 24
2020-07-21 11:00:00 29.7 8 Sur 13 Sur 0 -- -- 28
2020-07-21 10:00:00 26.6 4 Sur 8 Sur 0 -- -- 39
2020-07-21 09:00:00 22.6 3 Sudeste 13 Norte 0 -- -- 49
2020-07-21 08:00:00 20 11 Norte 19 Noroeste 0 -- -- 54
2020-07-21 07:00:00 18.8 14 Norte 17 Norte 0 -- -- 54
2020-07-21 06:00:00 18.3 12 Norte 15 Norte 0 -- -- 63
2020-07-21 05:00:00 18.8 8 Norte 12 Norte 0 -- -- 67
2020-07-21 04:00:00 19.9 7 Oeste 19 Norte 0 -- -- 66
2020-07-21 03:00:00 19.2 5 Norte 12 Noroeste 0 -- -- 63
2020-07-21 02:00:00 19.8 4 Noroeste 8 Noroeste 0 -- -- 68
2020-07-21 01:00:00 20.6 5 Sudoeste 8 Sudoeste 0 -- -- 65
2020-07-21 00:00:00 21.4 5 Sur 12 Sur 0 -- -- 61
2020-07-20 23:00:00 22.5 8 Sur 16 Sur 0 -- -- 57
2020-07-20 22:00:00 24.5 8 Sur 15 Sudeste 0 -- -- 56
2020-07-20 21:00:00 27.8 8 Sudeste 30 Este 0 -- -- 47
2020-07-20 20:00:00 31.4 22 Sudeste 29 Este 0 -- -- 39
2020-07-20 19:00:00 31.9 6 Nordeste 20 Este 0 -- -- 38
2020-07-20 18:00:00 34 17 Sudeste 33 Sudeste 0 -- -- 36
2020-07-20 17:00:00 35.4 17 Sudeste 43 Sudeste 0 -- -- 33
2020-07-20 16:00:00 34.9 19 Este 33 Este 0 -- -- 33
2020-07-20 15:00:00 35.4 14 Sudeste 26 Sudeste 0 -- -- 32
2020-07-20 14:00:00 35.1 13 Sudeste 25 Sur 0 -- -- 30
2020-07-20 13:00:00 33.9 11 Sudeste 25 Sudeste 0 -- -- 33
2020-07-20 12:00:00 32.4 12 Sudeste 22 Sudeste 0 -- -- 35
2020-07-20 11:00:00 30.3 8 Sur 15 Sudeste 0 -- -- 41
2020-07-20 10:00:00 26.4 4 Este 6 Nordeste 0 -- -- 50
2020-07-20 09:00:00 22.6 0 Calma 4 Sur 0 -- -- 64
2020-07-20 08:00:00 19.5 2 Sudeste 11 Noroeste 0 -- -- 76
2020-07-20 07:00:00 18.1 6 Noroeste 9 Noroeste 0 -- -- 81
2020-07-20 06:00:00 18.2 2 Noroeste 6 Noroeste 0 -- -- 80
2020-07-20 05:00:00 19.1 4 Noroeste 7 Nordeste 0 -- -- 77
2020-07-20 04:00:00 19.3 3 Norte 5 Norte 0 -- -- 74
2020-07-20 03:00:00 20.8 2 Oeste 12 Sudoeste 0 -- -- 68
2020-07-20 02:00:00 21.9 6 Sudoeste 15 Sur 0 -- -- 64
2020-07-20 01:00:00 24 5 Sur 12 Oeste 0 -- -- 55
2020-07-20 00:00:00 25.5 6 Noroeste 25 Norte 0 -- -- 49
2020-07-19 23:00:00 25.9 17 Norte 30 Noroeste 0 -- -- 49
2020-07-19 22:00:00 26.8 23 Noroeste 40 Noroeste 0 -- -- 46
2020-07-19 21:00:00 27.4 26 Oeste 53 Oeste 0 -- -- 40
2020-07-19 20:00:00 28.2 7 Sur 26 Sudeste 0 -- -- 47
2020-07-19 19:00:00 29.9 16 Sudeste 29 Sudeste 0 -- -- 43
2020-07-19 18:00:00 33.7 18 Sudeste 30 Sudeste 0 -- -- 37
2020-07-19 17:00:00 34 20 Sudeste 31 Sudeste 0 -- -- 36
2020-07-19 16:00:00 34.1 18 Sudeste 26 Sudeste 0 -- -- 37
2020-07-19 15:00:00 34 15 Sudeste 26 Sudeste 0 -- -- 37
2020-07-19 14:00:00 32.8 14 Sudeste 26 Sur 0 -- -- 39
2020-07-19 13:00:00 31.3 12 Sur 22 Sudeste 0 -- -- 42
2020-07-19 12:00:00 29.4 11 Sudeste 20 Sudeste 0 -- -- 47
2020-07-19 11:00:00 27.1 10 Sudeste 16 Sudeste 0 -- -- 53
2020-07-19 10:00:00 24.9 6 Sur 12 Sur 0 -- -- 61
2020-07-19 09:00:00 21.8 3 Sudeste 7 Noroeste 0 -- -- 74
2020-07-19 08:00:00 18.3 5 Noroeste 7 Noroeste 0 -- -- 89
2020-07-19 07:00:00 16.7 3 Noroeste 5 Norte 0 -- -- 90
2020-07-19 06:00:00 17.5 2 Noroeste 5 Norte 0 -- -- 89
2020-07-19 05:00:00 18.3 3 Noroeste 5 Noroeste 0 -- -- 88
2020-07-19 04:00:00 18.4 5 Norte 7 Norte 0 -- -- 87
2020-07-19 03:00:00 19.2 3 Noroeste 5 Norte 0 -- -- 84
2020-07-19 02:00:00 19.9 4 Noroeste 6 Nordeste 0 -- -- 81
2020-07-19 01:00:00 20.1 5 Nordeste 6 Nordeste 0 -- -- 79
2020-07-19 00:00:00 20.7 3 Sur 7 Este 0 -- -- 77
2020-07-18 23:00:00 21.4 4 Este 12 Este 0 -- -- 74
2020-07-18 22:00:00 22.7 10 Este 19 Sudeste 0 -- -- 69
2020-07-18 21:00:00 25.3 15 Sudeste 26 Este 0 -- -- 62
2020-07-18 20:00:00 29.4 17 Sudeste 28 Este 0 -- -- 49
2020-07-18 19:00:00 31.2 18 Sudeste 30 Sudeste 0 -- -- 44
2020-07-18 18:00:00 31.7 18 Sudeste 32 Sudeste 0 -- -- 43
2020-07-18 17:00:00 32.3 20 Sudeste 34 Sudeste 0 -- -- 43
2020-07-18 16:00:00 32.5 17 Sudeste 28 Sudeste 0 -- -- 40
2020-07-18 15:00:00 32.6 14 Sur 25 Sudeste 0 -- -- 39
2020-07-18 14:00:00 30.5 14 Sudeste 25 Sudeste 0 -- -- 41
2020-07-18 13:00:00 29.1 15 Sudeste 35 Este 0 -- -- 41
2020-07-18 12:00:00 27.5 12 Sudeste 21 Sudeste 0 -- -- 48
2020-07-18 11:00:00 26.3 9 Sudeste 16 Sudeste 0 -- -- 53
2020-07-18 10:00:00 23.6 4 Este 11 Este 0 -- -- 61
2020-07-18 09:00:00 20.3 4 Norte 8 Norte 0 -- -- 82
2020-07-18 08:00:00 17.7 2 Nordeste 4 Nordeste 0 -- -- 90
2020-07-18 07:00:00 16.9 3 Noroeste 6 Norte 0 -- -- 92
2020-07-18 06:00:00 17.3 4 Nordeste 5 Norte 0 -- -- 91
2020-07-18 05:00:00 18 3 Norte 4 Norte 0 -- -- 91
2020-07-18 04:00:00 19.3 2 Este 7 Sudeste 0 -- -- 87
2020-07-18 03:00:00 19.4 0 Calma 4 Este 0 -- -- 88
2020-07-18 02:00:00 19.1 2 Este 9 Este 0 -- -- 88
2020-07-18 01:00:00 19.7 5 Este 9 Este 0 -- -- 84
2020-07-18 00:00:00 20.5 7 Este 11 Nordeste 0 -- -- 79
2020-07-17 23:00:00 21.6 8 Este 17 Este 0 -- -- 74
2020-07-17 22:00:00 22.9 13 Este 21 Este 0 -- -- 67
2020-07-17 21:00:00 25.4 16 Sudeste 24 Este 0 -- -- 55
2020-07-17 20:00:00 27.4 16 Sudeste 29 Este 0 -- -- 46
2020-07-17 19:00:00 30.5 20 Este 29 Este 0 -- -- 39
2020-07-17 18:00:00 31.9 22 Sudeste 34 Sudeste 0 -- -- 36
2020-07-17 17:00:00 32.6 17 Sudeste 32 Sudeste 0 -- -- 33
2020-07-17 16:00:00 32.8 18 Sudeste 38 Sudeste 0 -- -- 34
2020-07-17 15:00:00 33 17 Sudeste 33 Sudeste 0 -- -- 32
2020-07-17 14:00:00 31.6 15 Sudeste 29 Sudeste 0 -- -- 35
2020-07-17 13:00:00 30.4 15 Sudeste 30 Sur 0 -- -- 34
2020-07-17 12:00:00 28.6 13 Sudeste 23 Sudeste 0 -- -- 36
2020-07-17 11:00:00 26.8 12 Sudeste 19 Sudeste 0 -- -- 40
2020-07-17 10:00:00 24.2 6 Sudeste 10 Sudeste 0 -- -- 54
2020-07-17 09:00:00 20.9 2 Este 4 Sudeste 0 -- -- 71
2020-07-17 08:00:00 17.3 3 Noroeste 6 Oeste 0 -- -- 86
2020-07-17 07:00:00 15.9 3 Noroeste 8 Noroeste 0 -- -- 88
2020-07-17 06:00:00 15.9 0 Calma 10 Noroeste 0 -- -- 90
2020-07-17 05:00:00 17 9 Noroeste 12 Noroeste 0 -- -- 87
2020-07-17 04:00:00 16.3 6 Norte 7 Norte 0 -- -- 89
2020-07-17 03:00:00 17.5 3 Sudoeste 4 Sur 0 -- -- 86
2020-07-17 02:00:00 17.8 3 Nordeste 4 Nordeste 0 -- -- 85
2020-07-17 01:00:00 19.1 2 Este 5 Sur 0 -- -- 77
2020-07-17 00:00:00 20.1 3 Sur 11 Sudeste 0 -- -- 74
2020-07-16 23:00:00 21.2 8 Sudeste 11 Sudeste 0 -- -- 69
2020-07-16 22:00:00 22.4 8 Sudeste 20 Sudeste 0 -- -- 65
2020-07-16 21:00:00 25.1 13 Sudeste 23 Este 0 -- -- 57
2020-07-16 20:00:00 29.1 15 Este 27 Este 0 -- -- 46
2020-07-16 19:00:00 31.2 16 Este 27 Sudeste 0 -- -- 41
2020-07-16 18:00:00 32.6 17 Sudeste 30 Sudeste 0 -- -- 37
2020-07-16 17:00:00 32.6 10 Este 26 Sudeste 0 -- -- 33
2020-07-16 16:00:00 32.4 11 Sudeste 23 Este 0 -- -- 34
2020-07-16 15:00:00 31.6 12 Sudeste 23 Este 0 -- -- 34
2020-07-16 14:00:00 30 9 Este 23 Sudeste 0 -- -- 37
2020-07-16 13:00:00 30.2 10 Sudeste 20 Sudeste 0 -- -- 36
2020-07-16 12:00:00 28.8 8 Sudeste 20 Este 0 -- -- 39
2020-07-16 11:00:00 26 8 Sur 12 Sur 0 -- -- 48
2020-07-16 10:00:00 23.6 4 Sur 8 Sudeste 0 -- -- 52
2020-07-16 09:00:00 19.8 0 Calma 5 Sur 0 -- -- 73
2020-07-16 08:00:00 17.3 3 Sudoeste 13 Noroeste 0 -- -- 81
2020-07-16 07:00:00 15.2 0 Calma 6 Noroeste 0 -- -- 86
2020-07-16 06:00:00 15.6 3 Norte 7 Norte 0 -- -- 86
2020-07-16 05:00:00 16 2 Norte 13 Noroeste 0 -- -- 88
2020-07-16 04:00:00 17.1 7 Noroeste 10 Noroeste 0 -- -- 83
2020-07-16 03:00:00 17.4 5 Noroeste 9 Noroeste 0 -- -- 84
2020-07-16 02:00:00 17.6 3 Norte 5 Norte 0 -- -- 84
2020-07-16 01:00:00 18.6 3 Nordeste 8 Sudoeste 0 -- -- 77
2020-07-16 00:00:00 19.8 5 Sudoeste 9 Sudoeste 0 -- -- 71
2020-07-15 23:00:00 20.5 6 Sur 9 Sur 0 -- -- 71
2020-07-15 22:00:00 21.8 5 Sudeste 20 Sudeste 0 -- -- 62
2020-07-15 21:00:00 24.1 12 Sudeste 25 Este 0 -- -- 54
2020-07-15 20:00:00 27.8 17 Este 26 Este 0 -- -- 46
2020-07-15 19:00:00 29.7 17 Este 28 Este 0 -- -- 46
2020-07-15 18:00:00 30.8 16 Sudeste 29 Sudeste 0 -- -- 43
2020-07-15 17:00:00 31 16 Sudeste 27 Sudeste 0 -- -- 45
2020-07-15 16:00:00 30.8 12 Sudeste 25 Sur 0 -- -- 44
2020-07-15 15:00:00 30 10 Sur 20 Sur 0 -- -- 45
2020-07-15 14:00:00 27.8 10 Este 20 Sudeste 0 -- -- 50
2020-07-15 13:00:00 27.5 11 Sur 22 Sur 0 -- -- 53
2020-07-15 12:00:00 25.5 7 Sur 17 Sur 0 -- -- 59
2020-07-15 11:00:00 23.3 8 Sudeste 14 Sudeste 0 -- -- 67
2020-07-15 10:00:00 20.1 4 Sudeste 10 Sudeste 0 -- -- 96
2020-07-15 09:00:00 18.7 2 Sudeste 9 Norte 0 -- -- 98
2020-07-15 08:00:00 16.5 8 Norte 17 Noroeste 0 -- -- 98
2020-07-15 07:00:00 15.8 6 Noroeste 13 Noroeste 0 -- -- 98
2020-07-15 06:00:00 16.3 9 Noroeste 12 Noroeste 0 -- -- 98
2020-07-15 05:00:00 16.4 5 Norte 18 Noroeste 0 -- -- 97
2020-07-15 04:00:00 16.9 10 Noroeste 15 Noroeste 0 -- -- 98
2020-07-15 03:00:00 17.2 7 Oeste 10 Noroeste 0 -- -- 98
2020-07-15 02:00:00 17.4 6 Noroeste 8 Noroeste 0 -- -- 97
2020-07-15 01:00:00 17.9 0 Calma 18 Oeste 0 -- -- 96
2020-07-15 00:00:00 18 9 Sur 18 Norte 2.8 -- -- 95
2020-07-14 23:00:00 19 16 Oeste 37 Noroeste 0 -- -- 90
2020-07-14 22:00:00 17.9 21 Norte 27 Norte 0 -- -- 97
2020-07-14 21:00:00 18.4 6 Noroeste 17 Oeste 0 -- -- 97
2020-07-14 20:00:00 18 6 Sur 59 Norte 16 -- -- 97
2020-07-14 19:00:00 19 29 Noroeste 46 Norte 1.2 -- -- 92
2020-07-14 18:00:00 25.2 15 Sudeste 28 Sudeste 0 -- -- 61
2020-07-14 17:00:00 29.3 18 Sudeste 32 Sudeste 0 -- -- 48
2020-07-14 16:00:00 28 18 Sudeste 29 Sudeste 0 -- -- 50
2020-07-14 15:00:00 25.9 15 Sudeste 23 Este 0 -- -- 59
2020-07-14 14:00:00 26.2 11 Este 21 Este 0 -- -- 58
2020-07-14 13:00:00 23.6 10 Este 19 Nordeste 0.6 -- -- 70
2020-07-14 12:00:00 23.7 5 Sudeste 13 Sur 1 -- -- 64
2020-07-14 11:00:00 26.1 8 Sur 14 Sur 0 -- -- 51
2020-07-14 10:00:00 25.4 6 Sur 11 Sur 0 -- -- 55
2020-07-14 09:00:00 22.6 3 Sur 6 Sudoeste 0 -- -- 67
2020-07-14 08:00:00 19.5 2 Oeste 12 Noroeste 0 -- -- 79
2020-07-14 07:00:00 18.4 6 Norte 12 Noroeste 0 -- -- 83
2020-07-14 06:00:00 19 2 Norte 10 Norte 0 -- -- 84
2020-07-14 05:00:00 19.3 3 Noroeste 17 Noroeste 0 -- -- 83
2020-07-14 04:00:00 19.4 8 Norte 10 Norte 0 -- -- 74
2020-07-14 03:00:00 18.9 3 Noroeste 8 Noroeste 0 -- -- 75
2020-07-14 02:00:00 19.5 4 Noroeste 8 Este 0 -- -- 74
2020-07-14 01:00:00 20.4 3 Oeste 10 Este 0 -- -- 73
2020-07-14 00:00:00 21.5 6 Este 11 Este 0 -- -- 66